createdAt,value
2023-04-06T00:01:32.106Z,90.10
2023-04-06T00:03:59.878Z,90.60
2023-04-06T00:06:27.822Z,90.80
2023-04-06T00:08:55.565Z,91.10
2023-04-06T00:11:23.155Z,91.10
2023-04-06T00:13:50.613Z,91.50
2023-04-06T00:16:18.103Z,91.40
2023-04-06T00:18:45.865Z,91.50
2023-04-06T00:21:16.845Z,91.70
2023-04-06T00:23:44.202Z,91.90
2023-04-06T00:26:14.085Z,91.90
2023-04-06T00:28:46.455Z,91.70
2023-04-06T00:31:14.250Z,91.80
2023-04-06T00:33:41.608Z,91.80
2023-04-06T00:36:08.990Z,91.30
2023-04-06T00:38:36.213Z,91.30
2023-04-06T00:41:05.428Z,91.40
2023-04-06T00:43:33.284Z,91.20
2023-04-06T00:46:00.639Z,91.20
2023-04-06T00:48:28.116Z,91.10
2023-04-06T00:50:55.380Z,90.90
2023-04-06T00:53:22.890Z,90.60
2023-04-06T00:55:52.480Z,90.90
2023-04-06T00:58:20.762Z,91.20
2023-04-06T01:00:53.455Z,91.30
2023-04-06T01:03:23.675Z,91.20
2023-04-06T01:05:56.330Z,91.60
2023-04-06T01:08:26.877Z,91.50
2023-04-06T01:11:04.261Z,91.40
2023-04-06T01:13:31.853Z,91.40
2023-04-06T01:16:03.229Z,91.40
2023-04-06T01:19:08.829Z,91.50
2023-04-06T01:21:37.795Z,91.80
2023-04-06T01:24:22.587Z,92.00
2023-04-06T01:27:05.824Z,92.00
2023-04-06T01:29:59.122Z,91.90
2023-04-06T01:32:49.354Z,92.30
2023-04-06T01:35:23.365Z,92.70
2023-04-06T01:38:03.251Z,92.90
2023-04-06T01:40:33.845Z,93.10
2023-04-06T01:43:01.498Z,93.40
2023-04-06T01:45:37.966Z,93.70
2023-04-06T01:48:14.640Z,93.90
2023-04-06T01:50:42.242Z,93.90
2023-04-06T01:53:12.053Z,93.70
2023-04-06T01:55:41.405Z,93.60
2023-04-06T01:58:19.705Z,93.60
2023-04-06T02:00:46.983Z,93.70
2023-04-06T02:03:16.005Z,93.80
2023-04-06T02:05:44.137Z,93.90
2023-04-06T02:08:37.432Z,94.00
2023-04-06T02:11:05.810Z,94.10
2023-04-06T02:13:42.472Z,94.00
2023-04-06T02:16:11.719Z,93.80
2023-04-06T02:18:39.152Z,93.80
2023-04-06T02:21:06.727Z,93.60
2023-04-06T02:23:33.939Z,93.00
2023-04-06T02:26:01.437Z,92.40
2023-04-06T02:28:29.496Z,92.00
2023-04-06T02:30:56.907Z,91.90
2023-04-06T02:33:27.702Z,92.20
2023-04-06T02:35:55.377Z,92.10
2023-04-06T02:38:23.781Z,92.10
2023-04-06T02:40:53.088Z,92.20
2023-04-06T02:43:25.685Z,92.20
2023-04-06T02:46:00.227Z,92.10
2023-04-06T02:48:27.809Z,91.90
2023-04-06T02:50:55.495Z,92.10
2023-04-06T02:53:23.034Z,92.40
2023-04-06T02:55:50.365Z,92.50
2023-04-06T02:58:17.740Z,92.40
2023-04-06T03:00:49.644Z,92.40
2023-04-06T03:03:17.068Z,92.50
2023-04-06T03:05:45.745Z,93.00
2023-04-06T03:08:14.526Z,93.10
2023-04-06T03:10:46.416Z,93.10
2023-04-06T03:13:15.689Z,93.00
2023-04-06T03:15:49.332Z,93.10
2023-04-06T03:18:26.403Z,93.10
2023-04-06T03:20:55.337Z,93.20
2023-04-06T03:23:26.725Z,93.30
2023-04-06T03:25:58.887Z,93.40
2023-04-06T03:28:26.241Z,93.80
2023-04-06T03:31:04.033Z,94.40
2023-04-06T03:33:57.537Z,94.60
2023-04-06T03:36:31.818Z,94.90
2023-04-06T03:38:59.824Z,95.00
2023-04-06T03:41:27.354Z,95.00
2023-04-06T03:44:11.028Z,95.10
2023-04-06T03:46:38.369Z,95.20
2023-04-06T03:49:06.103Z,95.20
2023-04-06T03:51:33.856Z,95.30
2023-04-06T03:54:01.151Z,95.50
2023-04-06T03:56:28.397Z,95.60
2023-04-06T03:58:55.638Z,95.60
2023-04-06T04:01:23.135Z,95.40
2023-04-06T04:03:51.903Z,95.50
2023-04-06T04:06:19.407Z,95.40
2023-04-06T04:08:47.034Z,95.40
2023-04-06T04:11:14.356Z,95.30
2023-04-06T04:13:41.659Z,95.60
2023-04-06T04:16:10.325Z,95.80
2023-04-06T04:18:37.734Z,95.40
2023-04-06T04:21:06.604Z,95.80
2023-04-06T04:23:35.908Z,95.90
2023-04-06T04:26:04.558Z,95.80
2023-04-06T04:28:31.947Z,95.60
2023-04-06T04:30:59.394Z,95.70
2023-04-06T04:33:28.410Z,95.80
2023-04-06T04:35:57.682Z,95.80
2023-04-06T04:38:28.276Z,95.70
2023-04-06T04:40:57.584Z,95.90
2023-04-06T04:43:24.868Z,96.00
2023-04-06T04:45:53.454Z,96.30
2023-04-06T04:48:36.645Z,96.80
2023-04-06T04:51:06.930Z,97.10
2023-04-06T04:53:49.628Z,97.20
2023-04-06T04:56:22.531Z,97.30
2023-04-06T04:58:54.821Z,97.40
2023-04-06T05:01:23.176Z,97.40
2023-04-06T05:03:51.738Z,97.40
2023-04-06T05:06:20.460Z,97.50
2023-04-06T05:08:48.412Z,97.40
2023-04-06T05:11:16.592Z,97.20
2023-04-06T05:13:47.346Z,97.30
2023-04-06T05:16:22.155Z,97.10
2023-04-06T05:18:51.352Z,96.80
2023-04-06T05:21:20.268Z,96.00
2023-04-06T05:24:07.945Z,95.80
2023-04-06T05:26:35.830Z,96.20
2023-04-06T05:29:12.332Z,95.90
2023-04-06T05:31:41.052Z,96.00
2023-04-06T05:34:10.703Z,95.70
2023-04-06T05:36:38.993Z,95.30
2023-04-06T05:39:14.902Z,95.20
2023-04-06T05:41:46.190Z,95.40
2023-04-06T05:44:14.715Z,95.60
2023-04-06T05:46:45.650Z,95.80
2023-04-06T05:49:17.393Z,95.50
2023-04-06T05:51:45.114Z,95.10
2023-04-06T05:54:12.665Z,95.30
2023-04-06T05:56:41.457Z,95.00
2023-04-06T05:59:11.375Z,94.50
2023-04-06T06:01:39.193Z,94.50
2023-04-06T06:04:07.042Z,94.30
2023-04-06T06:06:37.972Z,94.20
2023-04-06T06:09:17.029Z,94.00
2023-04-06T06:11:54.224Z,94.10
2023-04-06T06:14:25.926Z,93.80
2023-04-06T06:16:53.156Z,93.80
2023-04-06T06:19:20.749Z,93.80
2023-04-06T06:21:48.720Z,93.70
2023-04-06T06:24:16.197Z,93.00
2023-04-06T06:26:44.085Z,92.70
2023-04-06T06:29:13.798Z,92.60
2023-04-06T06:31:41.245Z,92.70
2023-04-06T06:34:08.869Z,92.60
2023-04-06T06:36:38.252Z,92.50
2023-04-06T06:39:08.988Z,92.20
2023-04-06T06:41:38.319Z,92.00
2023-04-06T06:44:06.810Z,91.70
2023-04-06T06:46:36.120Z,91.60
2023-04-06T06:49:04.105Z,89.40
2023-04-06T06:51:31.780Z,90.00
2023-04-06T06:53:59.141Z,89.70
2023-04-06T06:56:27.810Z,89.70
2023-04-06T06:58:56.090Z,89.60
2023-04-06T07:01:23.819Z,86.90
2023-04-06T07:03:51.656Z,82.90
2023-04-06T07:06:18.950Z,84.30
2023-04-06T07:08:46.678Z,83.90
2023-04-06T07:11:16.812Z,82.10
2023-04-06T07:13:44.347Z,81.90
2023-04-06T07:16:12.102Z,81.80
2023-04-06T07:18:39.439Z,80.20
2023-04-06T07:21:06.705Z,80.60
2023-04-06T07:23:34.089Z,80.00
2023-04-06T07:26:01.449Z,78.20
2023-04-06T07:28:28.742Z,78.10
2023-04-06T07:30:56.647Z,77.40
2023-04-06T07:33:24.215Z,77.50
2023-04-06T07:35:52.542Z,77.90
2023-04-06T07:38:20.237Z,77.00
2023-04-06T07:40:47.609Z,76.00
2023-04-06T07:43:15.121Z,76.70
2023-04-06T07:45:43.042Z,77.20
2023-04-06T07:48:10.964Z,76.30
2023-04-06T07:50:38.513Z,76.10
2023-04-06T07:53:06.937Z,76.10
2023-04-06T07:55:36.122Z,75.40
2023-04-06T07:58:03.409Z,74.40
2023-04-06T08:00:31.369Z,75.10
2023-04-06T08:02:58.842Z,74.80
2023-04-06T08:05:26.290Z,75.20
2023-04-06T08:07:53.644Z,73.90
2023-04-06T08:10:20.936Z,74.70
2023-04-06T08:12:48.214Z,75.10
2023-04-06T08:15:15.947Z,76.40
2023-04-06T08:17:43.292Z,76.60
2023-04-06T08:20:11.110Z,75.20
2023-04-06T08:22:38.381Z,76.20
2023-04-06T08:25:06.432Z,76.10
2023-04-06T08:27:33.682Z,75.40
2023-04-06T08:30:01.096Z,74.20
2023-04-06T08:32:28.701Z,75.20
2023-04-06T08:34:56.438Z,73.40
2023-04-06T08:37:24.180Z,73.90
2023-04-06T08:39:51.807Z,74.00
2023-04-06T08:42:22.987Z,74.30
2023-04-06T08:44:52.421Z,73.40
2023-04-06T08:47:23.058Z,71.90
2023-04-06T08:49:53.484Z,73.10
2023-04-06T08:52:21.369Z,71.50
2023-04-06T08:54:48.837Z,71.40
2023-04-06T08:57:17.504Z,71.10
2023-04-06T08:59:45.299Z,72.50
2023-04-06T09:02:18.731Z,71.20
2023-04-06T09:04:50.745Z,70.80
2023-04-06T09:07:18.283Z,71.30
2023-04-06T09:09:50.049Z,70.70
2023-04-06T09:12:32.089Z,71.20
2023-04-06T09:15:00.986Z,71.00
2023-04-06T09:17:34.614Z,70.70
2023-04-06T09:20:08.458Z,71.30
2023-04-06T09:22:40.479Z,70.60
2023-04-06T09:25:09.348Z,71.90
2023-04-06T09:27:38.155Z,71.00
2023-04-06T09:30:14.642Z,70.70
2023-04-06T09:32:53.258Z,70.20
2023-04-06T09:35:21.417Z,71.40
2023-04-06T09:37:52.746Z,71.20
2023-04-06T09:40:21.960Z,69.60
2023-04-06T09:42:58.315Z,69.90
2023-04-06T09:45:26.393Z,68.60
2023-04-06T09:47:57.236Z,67.90
2023-04-06T09:50:26.762Z,68.60
2023-04-06T09:52:58.826Z,69.50
2023-04-06T09:55:36.549Z,69.20
2023-04-06T09:58:12.542Z,69.60
2023-04-06T10:00:57.841Z,70.10
2023-04-06T10:03:46.198Z,69.90
2023-04-06T10:06:15.965Z,68.10
2023-04-06T10:08:46.668Z,70.20
2023-04-06T10:11:14.252Z,69.20
2023-04-06T10:13:42.947Z,68.30
2023-04-06T10:16:11.130Z,67.50
2023-04-06T10:18:43.678Z,68.50
2023-04-06T10:21:15.361Z,68.00
2023-04-06T10:23:59.959Z,67.60
2023-04-06T10:26:27.348Z,67.30
2023-04-06T10:28:55.683Z,67.70
2023-04-06T10:31:27.797Z,67.80
2023-04-06T10:34:03.187Z,69.00
2023-04-06T10:36:35.177Z,69.30
2023-04-06T10:39:07.386Z,68.90
2023-04-06T10:41:36.986Z,69.40
2023-04-06T10:44:04.772Z,68.00
2023-04-06T10:46:34.010Z,68.40
2023-04-06T10:49:13.126Z,68.40
2023-04-06T10:51:41.013Z,69.60
2023-04-06T10:54:08.895Z,70.70
2023-04-06T10:56:39.909Z,70.10
2023-04-06T10:59:08.641Z,70.20
2023-04-06T11:01:36.331Z,69.90
2023-04-06T11:04:04.194Z,68.80
2023-04-06T11:06:33.416Z,69.50
2023-04-06T11:09:01.205Z,70.10
2023-04-06T11:11:28.722Z,70.00
2023-04-06T11:14:00.671Z,70.10
2023-04-06T11:16:31.074Z,70.00
2023-04-06T11:19:01.339Z,69.50
2023-04-06T11:21:49.993Z,70.30
2023-04-06T11:24:25.163Z,70.90
2023-04-06T11:26:57.861Z,71.00
2023-04-06T11:29:28.071Z,70.30
2023-04-06T11:32:02.792Z,70.80
2023-04-06T11:34:38.391Z,69.90
2023-04-06T11:37:16.072Z,70.60
2023-04-06T11:40:10.265Z,70.60
2023-04-06T11:42:48.891Z,70.30
2023-04-06T11:45:17.113Z,71.50
2023-04-06T11:47:45.428Z,70.30
2023-04-06T11:50:16.880Z,70.90
2023-04-06T11:52:44.646Z,70.50
2023-04-06T11:55:16.862Z,71.80
2023-04-06T11:57:44.637Z,71.50
2023-04-06T12:00:13.289Z,71.20
2023-04-06T12:02:40.957Z,71.10
2023-04-06T12:05:09.470Z,71.80
2023-04-06T12:07:37.256Z,71.50
2023-04-06T12:10:05.962Z,71.50
2023-04-06T12:12:33.417Z,71.50
2023-04-06T12:15:00.956Z,71.10
2023-04-06T12:17:28.301Z,70.60
2023-04-06T12:19:57.175Z,71.30
2023-04-06T12:22:29.443Z,70.90
2023-04-06T12:24:56.705Z,70.30
2023-04-06T12:27:23.993Z,71.00
2023-04-06T12:29:51.669Z,70.30
2023-04-06T12:32:19.178Z,71.30
2023-04-06T12:34:46.449Z,70.60
2023-04-06T12:37:13.722Z,70.70
2023-04-06T12:39:41.752Z,70.00
2023-04-06T12:42:10.157Z,71.50
2023-04-06T12:44:37.451Z,71.20
2023-04-06T12:47:05.314Z,70.00
2023-04-06T12:49:32.696Z,71.20
2023-04-06T12:52:00.033Z,70.30
2023-04-06T12:54:28.659Z,71.40
2023-04-06T12:56:57.471Z,71.30
2023-04-06T12:59:26.216Z,71.50
2023-04-06T13:01:53.803Z,71.80
2023-04-06T13:04:21.158Z,71.10
2023-04-06T13:06:48.368Z,70.50
2023-04-06T13:09:15.697Z,70.60
2023-04-06T13:11:43.105Z,70.90
2023-04-06T13:14:10.727Z,70.90
2023-04-06T13:16:38.592Z,70.20
2023-04-06T13:19:06.334Z,70.10
2023-04-06T13:21:34.295Z,70.20
2023-04-06T13:24:06.034Z,70.10
2023-04-06T13:26:33.384Z,69.70
2023-04-06T13:29:01.747Z,70.50
2023-04-06T13:31:29.405Z,69.50
2023-04-06T13:33:56.693Z,70.10
2023-04-06T13:36:23.973Z,71.80
2023-04-06T13:38:51.416Z,71.10
2023-04-06T13:41:22.367Z,71.70
2023-04-06T13:43:50.726Z,71.10
2023-04-06T13:46:18.046Z,71.10
2023-04-06T13:48:45.740Z,71.40
2023-04-06T13:51:14.550Z,71.30
2023-04-06T13:53:42.044Z,72.00
2023-04-06T13:56:09.384Z,71.00
2023-04-06T13:58:37.536Z,70.00
2023-04-06T14:01:07.470Z,70.80
2023-04-06T14:03:35.182Z,71.60
2023-04-06T14:08:43.084Z,70.80
2023-04-06T14:11:14.440Z,70.70
2023-04-06T14:13:42.955Z,71.10
2023-04-06T14:16:10.507Z,71.20
2023-04-06T14:18:38.190Z,71.70
2023-04-06T14:21:05.568Z,71.50
2023-04-06T14:23:34.032Z,72.60
2023-04-06T14:26:09.380Z,71.90
2023-04-06T14:28:37.031Z,72.90
2023-04-06T14:31:13.015Z,71.60
2023-04-06T14:33:44.047Z,71.60
2023-04-06T14:36:16.645Z,71.20
2023-04-06T14:38:50.213Z,71.40
2023-04-06T14:41:19.075Z,72.20
2023-04-06T14:43:49.443Z,71.90
2023-04-06T14:46:17.090Z,72.00
2023-04-06T14:48:44.829Z,72.60
2023-04-06T14:51:12.731Z,72.60
2023-04-06T14:53:40.545Z,73.40
2023-04-06T14:56:08.054Z,72.40
2023-04-06T14:58:35.310Z,72.30
2023-04-06T15:01:03.456Z,72.60
2023-04-06T15:03:31.179Z,71.80
2023-04-06T15:05:59.049Z,72.50
2023-04-06T15:08:26.479Z,71.50
2023-04-06T15:10:55.533Z,71.90
2023-04-06T15:13:22.866Z,71.80
2023-04-06T15:15:52.413Z,71.10
2023-04-06T15:18:19.848Z,71.30
2023-04-06T15:20:47.124Z,71.90
2023-04-06T15:23:14.358Z,71.60
2023-04-06T15:25:42.299Z,72.50
2023-04-06T15:28:09.715Z,72.20
2023-04-06T15:30:37.686Z,72.40
2023-04-06T15:33:07.243Z,73.10
2023-04-06T15:35:42.836Z,71.90
2023-04-06T15:38:10.758Z,70.70
2023-04-06T15:40:46.541Z,71.30
2023-04-06T15:43:14.304Z,71.10
2023-04-06T15:45:41.911Z,71.00
2023-04-06T15:48:09.687Z,72.10
2023-04-06T15:50:38.205Z,71.80
2023-04-06T15:53:05.819Z,71.20
2023-04-06T15:55:33.194Z,71.70
2023-04-06T15:58:00.681Z,71.40
2023-04-06T16:00:28.848Z,72.00
2023-04-06T16:02:57.138Z,71.50
2023-04-06T16:05:25.106Z,71.60
2023-04-06T16:07:53.455Z,71.50
2023-04-06T16:10:21.063Z,72.00
2023-04-06T16:12:48.341Z,72.60
2023-04-06T16:15:15.803Z,72.70
2023-04-06T16:17:43.616Z,71.70
2023-04-06T16:20:12.003Z,71.00
2023-04-06T16:22:39.300Z,70.80
2023-04-06T16:25:06.926Z,71.80
2023-04-06T16:27:34.241Z,72.40
2023-04-06T16:32:29.573Z,72.70
2023-04-06T16:34:58.066Z,72.40
2023-04-06T16:37:27.160Z,73.10
2023-04-06T16:39:54.396Z,72.60
2023-04-06T16:42:21.653Z,72.60
2023-04-06T16:44:49.007Z,72.10
2023-04-06T16:47:16.746Z,72.50
2023-04-06T16:49:44.227Z,72.60
2023-04-06T16:52:11.769Z,71.80
2023-04-06T16:54:39.069Z,72.10
2023-04-06T16:57:06.720Z,71.80
2023-04-06T16:59:35.342Z,72.10
2023-04-06T17:02:02.891Z,72.00
2023-04-06T17:04:30.256Z,72.80
2023-04-06T17:06:57.615Z,73.10
2023-04-06T17:09:25.445Z,73.60
2023-04-06T17:11:53.105Z,73.90
2023-04-06T17:14:20.374Z,74.30
2023-04-06T17:16:47.648Z,73.80
2023-04-06T17:19:14.894Z,73.80
2023-04-06T17:21:42.376Z,74.10
2023-04-06T17:24:09.815Z,74.00
2023-04-06T17:26:37.928Z,74.20
2023-04-06T17:29:05.326Z,75.00
2023-04-06T17:31:32.973Z,75.00
2023-04-06T17:34:00.444Z,75.20
2023-04-06T17:36:28.384Z,74.70
2023-04-06T17:38:55.779Z,74.80
2023-04-06T17:41:24.041Z,74.70
2023-04-06T17:43:51.546Z,74.50
2023-04-06T17:46:21.129Z,74.60
2023-04-06T17:48:48.574Z,75.20
2023-04-06T17:51:18.821Z,75.30
2023-04-06T17:53:46.622Z,75.90
2023-04-06T17:56:14.493Z,76.50
2023-04-06T17:58:42.003Z,76.20
2023-04-06T18:01:11.658Z,76.40
2023-04-06T18:03:39.348Z,76.80
2023-04-06T18:06:13.730Z,76.70
2023-04-06T18:08:42.403Z,76.80
2023-04-06T18:11:21.386Z,77.00
2023-04-06T18:13:49.053Z,77.60
2023-04-06T18:16:17.463Z,77.30
2023-04-06T18:18:45.336Z,77.50
2023-04-06T18:21:12.564Z,77.40
2023-04-06T18:23:39.821Z,77.40
2023-04-06T18:26:14.018Z,77.80
2023-04-06T18:28:41.455Z,78.00
2023-04-06T18:31:08.720Z,78.30
2023-04-06T18:33:36.095Z,78.40
2023-04-06T18:36:03.537Z,78.20
2023-04-06T18:38:31.066Z,78.40
2023-04-06T18:40:58.977Z,78.60
2023-04-06T18:43:26.257Z,78.40
2023-04-06T18:45:53.517Z,78.80
2023-04-06T18:48:20.815Z,78.70
2023-04-06T18:50:57.555Z,78.50
2023-04-06T18:53:24.803Z,78.20
2023-04-06T18:55:52.069Z,78.40
2023-04-06T18:58:19.576Z,79.30
2023-04-06T19:00:47.207Z,80.60
2023-04-06T19:03:14.620Z,80.90
2023-04-06T19:05:42.178Z,81.40
2023-04-06T19:08:09.875Z,81.60
2023-04-06T19:10:38.479Z,81.70
2023-04-06T19:13:06.043Z,81.50
2023-04-06T19:15:36.662Z,82.20
2023-04-06T19:18:04.180Z,82.60
2023-04-06T19:20:34.623Z,83.00
2023-04-06T19:23:03.793Z,82.40
2023-04-06T19:25:31.361Z,82.50
2023-04-06T19:27:58.619Z,82.90
2023-04-06T19:30:26.074Z,83.10
2023-04-06T19:32:53.606Z,83.20
2023-04-06T19:35:21.104Z,83.50
2023-04-06T19:37:48.594Z,83.60
2023-04-06T19:40:16.166Z,84.00
2023-04-06T19:42:43.422Z,84.20
2023-04-06T19:45:11.213Z,84.10
2023-04-06T19:47:39.118Z,84.00
2023-04-06T19:50:09.975Z,84.20
2023-04-06T19:52:37.607Z,84.20
2023-04-06T19:55:05.203Z,84.40
2023-04-06T19:57:32.524Z,84.50
2023-04-06T19:59:59.813Z,84.70
2023-04-06T20:02:27.289Z,85.10
2023-04-06T20:04:54.613Z,85.10
2023-04-06T20:07:22.003Z,84.80
2023-04-06T20:09:49.183Z,85.10
2023-04-06T20:12:16.458Z,85.20
2023-04-06T20:14:43.681Z,85.50
2023-04-06T20:17:10.977Z,85.40
2023-04-06T20:19:38.182Z,85.50
2023-04-06T20:22:05.621Z,85.50
2023-04-06T20:24:32.911Z,85.70
2023-04-06T20:27:00.182Z,86.20
2023-04-06T20:29:27.800Z,85.40
2023-04-06T20:31:55.279Z,85.60
2023-04-06T20:34:25.964Z,86.10
2023-04-06T20:36:53.689Z,86.20
2023-04-06T20:39:21.654Z,86.60
2023-04-06T20:41:49.113Z,86.60
2023-04-06T20:44:16.772Z,86.60
2023-04-06T20:46:45.814Z,86.80
2023-04-06T20:49:13.318Z,86.90
2023-04-06T20:51:42.506Z,87.20
2023-04-06T20:54:10.257Z,88.20
2023-04-06T20:56:38.022Z,87.20
2023-04-06T20:59:05.892Z,87.10
2023-04-06T21:01:33.268Z,86.90
2023-04-06T21:04:02.546Z,87.30
2023-04-06T21:06:32.389Z,87.40
2023-04-06T21:09:00.338Z,87.40
2023-04-06T21:11:27.796Z,87.50
2023-04-06T21:13:55.210Z,87.50
2023-04-06T21:16:22.871Z,87.30
2023-04-06T21:18:50.264Z,87.70
2023-04-06T21:21:17.566Z,88.10
2023-04-06T21:23:44.864Z,88.70
2023-04-06T21:26:13.293Z,88.80
2023-04-06T21:28:40.523Z,88.90
2023-04-06T21:31:10.927Z,89.10
2023-04-06T21:33:38.299Z,89.20
2023-04-06T21:36:07.192Z,89.40
2023-04-06T21:38:37.919Z,89.30
2023-04-06T21:41:06.657Z,89.20
2023-04-06T21:43:34.403Z,89.70
2023-04-06T21:46:02.147Z,90.00
2023-04-06T21:48:29.505Z,90.00
2023-04-06T21:50:56.871Z,90.00
2023-04-06T21:53:24.182Z,90.00
2023-04-06T21:55:51.472Z,89.90
2023-04-06T21:58:18.836Z,89.80
2023-04-06T22:00:46.341Z,90.10
2023-04-06T22:03:13.908Z,90.60
2023-04-06T22:05:41.342Z,90.30
2023-04-06T22:08:11.289Z,90.40
2023-04-06T22:10:44.906Z,90.50
2023-04-06T22:13:13.005Z,90.50
2023-04-06T22:15:40.291Z,90.50
2023-04-06T22:18:07.485Z,90.50
2023-04-06T22:20:34.753Z,90.60
2023-04-06T22:23:02.028Z,90.70
2023-04-06T22:25:29.398Z,90.80
2023-04-06T22:27:56.582Z,90.90
2023-04-06T22:30:23.805Z,90.70
2023-04-06T22:32:51.239Z,90.60
2023-04-06T22:35:18.563Z,90.50
2023-04-06T22:37:45.828Z,90.50
2023-04-06T22:40:13.480Z,90.60
2023-04-06T22:42:40.738Z,90.80
2023-04-06T22:45:09.575Z,90.70
2023-04-06T22:47:37.876Z,90.20
2023-04-06T22:50:05.932Z,90.60
2023-04-06T22:52:33.182Z,90.50
2023-04-06T22:55:00.613Z,90.50
2023-04-06T22:57:29.168Z,90.60
2023-04-06T22:59:56.541Z,90.40
2023-04-06T23:02:23.798Z,90.60
2023-04-06T23:04:51.187Z,90.70
2023-04-06T23:07:18.399Z,90.90
2023-04-06T23:09:45.678Z,91.10
2023-04-06T23:12:13.057Z,91.10
2023-04-06T23:14:40.369Z,91.10
2023-04-06T23:17:07.988Z,91.20
2023-04-06T23:19:35.731Z,91.30
2023-04-06T23:22:03.143Z,91.40
2023-04-06T23:24:30.336Z,91.60
2023-04-06T23:26:57.597Z,91.70
2023-04-06T23:29:24.862Z,91.80
2023-04-06T23:31:52.188Z,91.90
2023-04-06T23:34:19.435Z,91.80
2023-04-06T23:36:46.760Z,91.80
2023-04-06T23:39:14.268Z,91.90
2023-04-06T23:41:41.719Z,91.70
2023-04-06T23:44:09.014Z,91.60
2023-04-06T23:46:36.330Z,91.70
2023-04-06T23:49:03.592Z,91.90
2023-04-06T23:51:31.756Z,91.90
2023-04-06T23:53:59.161Z,92.00
2023-04-06T23:56:26.571Z,92.70
2023-04-06T23:58:53.792Z,92.70
